Flight Track Log - Related Links

Times and Time Zones

All times are in EDT time to prevent confusion due to time zone crossing. See the N61GT flight status page for this flight to view local times or setup timezone preferences in your user account.


Time Position Orientation Groundspeed Altitude Reporting Facility
EDT Latitude Longitude Course Direction KTS MPH feet Rate Location/Type
Fri 07:27:01 PM 40.0764 -83.0847 265° West 116 133 1,200  Level Indianapolis Center
Fri 07:27:31 PM 40.0750 -83.1064 265° West 119 137 1,700 870 Climbing Indianapolis Center
Fri 07:28:10 PM 40.0675 -83.1225 239° Southwest 99 114 2,200 984 Climbing Indianapolis Center
Fri 07:28:32 PM 40.0542 -83.1339 213° Southwest 128 147 2,700 871 Climbing Indianapolis Center
Fri 07:29:12 PM 40.0419 -83.1489 223° Southwest 110 127 3,100 787 Climbing Indianapolis Center
Fri 07:29:33 PM 40.0314 -83.1614 222° Southwest 120 138 3,500 774 Climbing Indianapolis Center
Fri 07:30:14 PM 40.0172 -83.1775 221° Southwest 115 132 3,900 261 Climbing Indianapolis Center
Fri 07:31:28 PM 39.9769 -83.2203 219° Southwest 153 176 4,000 44 Climbing Indianapolis Center
Fri 07:32:29 PM 39.9450 -83.2572 222° Southwest 157 181 4,000  Level Indianapolis Center
Fri 07:33:19 PM 39.9222 -83.2839 222° Southwest 143 165 4,000  Level Indianapolis Center
Fri 07:34:20 PM 39.8911 -83.3183 220° Southwest 146 168 4,000  Level Indianapolis Center
Fri 07:35:22 PM 39.8597 -83.3533 221° Southwest 146 168 4,000  Level Indianapolis Center
Fri 07:35:37 PM 39.8517 -83.3628 222° Southwest 147 169 4,000  Level Indianapolis Center
Fri 07:36:24 PM 39.8283 -83.3878 219° Southwest 146 168 4,000  Level Indianapolis Center
Fri 07:37:25 PM 39.7967 -83.4239 221° Southwest 146 168 4,000  Level Indianapolis Center
Fri 07:38:26 PM 39.7631 -83.4608 220° Southwest 151 174 4,000  Level Indianapolis Center
Fri 07:39:27 PM 39.7333 -83.4953 222° Southwest 145 167 4,000  Level Indianapolis Center
Fri 07:40:28 PM 39.7014 -83.5319 221° Southwest 146 168 4,000  Level Indianapolis Center
Fri 07:41:28 PM 39.6675 -83.5631 215° Southwest 155 178 4,000  Level Indianapolis Center
Fri 07:42:33 PM 39.6375 -83.5992 223° Southwest 148 170 4,000  Level Indianapolis Center
Fri 07:43:35 PM 39.6064 -83.6336 220° Southwest 147 169 4,000  Level Indianapolis Center
Fri 07:44:36 PM 39.5717 -83.6731 221° Southwest 147 169 4,000  Level Indianapolis Center
Fri 07:45:37 PM 39.5397 -83.7069 219° Southwest 149 171 4,000  Level Indianapolis Center
Fri 07:46:39 PM 39.5064 -83.7433 220° Southwest 148 170 4,000 -48 Level Indianapolis Center
Fri 07:47:41 PM 39.4742 -83.7789 220° Southwest 150 173 3,900 -49 Descending Indianapolis Center
Fri 07:48:42 PM 39.4436 -83.8144 222° Southwest 149 171 3,900 -98 Level Indianapolis Center
Fri 07:49:44 PM 39.4139 -83.8514 224° Southwest 147 169 3,700 -341 Descending Indianapolis Center
Fri 07:50:45 PM 39.3806 -83.8911 223° Southwest 154 177 3,200 -390 Descending Indianapolis Center
Fri 07:51:47 PM 39.3472 -83.9306 222° Southwest 159 183 2,900 -146 Descending Indianapolis Center
Fri 07:52:48 PM 39.3164 -83.9658 222° Southwest 153 176 2,900  Level Indianapolis Center
Fri 07:53:50 PM 39.2872 -84.0014 223° Southwest 147 169 2,900  Level Indianapolis Center
Fri 07:54:51 PM 39.2578 -84.0356 222° Southwest 144 166 2,900 -98 Level Indianapolis Center
Fri 07:55:53 PM 39.2272 -84.0711 222° Southwest 144 166 2,700 -244 Descending Indianapolis Center
Fri 07:56:54 PM 39.1944 -84.0994 214° Southwest 143 165 2,400 -146 Descending Indianapolis Center
Fri 07:57:56 PM 39.1664 -84.1256 216° Southwest 118 136 2,400  Level Indianapolis Center
Fri 07:58:57 PM 39.1478 -84.1464 221° Southwest 98 113 2,400 -146 Level Indianapolis Center
Fri 07:59:59 PM 39.1272 -84.1664 217° Southwest 96 110 2,100 -290 Descending Indianapolis Center

Login

Don't have an account? Register now (free) for customized features, flight alerts, and more!